Time;durP1;ratioP1;P1;durP2;ratioP2;P2;SDS_P1;SDS_P2;PMS_P1;PMS_P2;Temp;Humidity;BMP_temperature;BMP_pressure;BME280_temperature;BME280_humidity;BME280_pressure;Samples;Min_cycle;Max_cycle;Signal;HPM_P1;HPM_P2
2024/04/21 00:02:17;;;;;;;1.10;0.80;;;;;;;3.85;44.67;92397.72;4908531;29;20061;-75
2024/04/21 00:04:43;;;;;;;0.80;0.80;;;;;;;3.87;44.19;92395.66;4922991;29;20017;-76
2024/04/21 00:07:08;;;;;;;1.33;0.80;;;;;;;3.92;44.10;92398.31;4897141;29;20425;-75
2024/04/21 00:09:34;;;;;;;0.70;0.70;;;;;;;3.97;43.92;92388.00;4923420;29;20050;-77
2024/04/21 00:11:59;;;;;;;1.17;0.90;;;;;;;4.00;43.56;92386.72;4897083;29;20368;-75
2024/04/21 00:14:25;;;;;;;0.75;0.70;;;;;;;3.99;43.38;92387.75;4922895;29;20020;-74
2024/04/21 00:16:51;;;;;;;1.00;0.80;;;;;;;4.00;44.51;92395.25;4896374;29;20022;-74
2024/04/21 00:19:16;;;;;;;0.98;0.75;;;;;;;4.01;44.35;92386.47;4919563;29;20021;-75
2024/04/21 00:21:42;;;;;;;1.25;0.80;;;;;;;4.02;44.19;92384.66;4928356;29;20025;-76
2024/04/21 00:24:07;;;;;;;1.00;0.70;;;;;;;3.99;44.06;92383.34;4921920;29;20490;-75
2024/04/21 00:26:33;;;;;;;0.70;0.70;;;;;;;3.97;44.32;92386.19;4896792;29;20410;-75
2024/04/21 00:29:04;;;;;;;0.52;0.52;;;;;;;3.99;43.97;92382.56;4923179;29;20455;-75
2024/04/21 00:31:30;;;;;;;0.73;0.60;;;;;;;3.94;44.43;92386.69;4896802;29;20010;-75
2024/04/21 00:33:55;;;;;;;0.82;0.77;;;;;;;3.91;45.38;92381.22;4896824;29;20021;-75
2024/04/21 00:36:21;;;;;;;0.85;0.80;;;;;;;3.90;45.17;92383.03;4922946;29;20026;-75
2024/04/21 00:38:48;;;;;;;1.02;0.70;;;;;;;3.85;45.14;92377.81;4923020;29;20091;-75
2024/04/21 00:41:14;;;;;;;0.40;0.40;;;;;;;3.84;44.95;92371.06;4898004;29;20509;-74
2024/04/21 00:43:40;;;;;;;0.73;0.50;;;;;;;3.85;44.81;92377.81;4908950;29;20015;-74
2024/04/21 00:46:06;;;;;;;0.70;0.70;;;;;;;3.87;44.55;92369.78;4922434;29;20010;-74
2024/04/21 00:48:33;;;;;;;0.77;0.60;;;;;;;3.94;44.69;92370.34;4922732;29;20445;-75
2024/04/21 00:51:00;;;;;;;0.63;0.63;;;;;;;3.90;44.61;92364.91;4922761;29;20467;-75
2024/04/21 00:53:27;;;;;;;1.05;0.70;;;;;;;3.88;44.66;92358.41;4923249;29;20379;-76
2024/04/21 00:55:55;;;;;;;0.60;0.60;;;;;;;3.84;45.33;92363.28;4896897;29;20018;-75
2024/04/21 00:58:22;;;;;;;0.50;0.50;;;;;;;3.81;45.77;92365.59;4923024;29;20132;-75
2024/04/21 01:00:47;;;;;;;0.75;0.60;;;;;;;3.75;46.42;92362.94;4923064;29;20018;-74
2024/04/21 01:03:13;;;;;;;0.70;0.65;;;;;;;3.72;46.40;92363.47;4900436;29;20025;-74
2024/04/21 01:05:39;;;;;;;0.75;0.75;;;;;;;3.71;46.35;92358.53;4922629;29;20020;-75
2024/04/21 01:08:06;;;;;;;0.70;0.68;;;;;;;3.68;46.35;92356.44;4922610;29;20400;-75
2024/04/21 01:10:32;;;;;;;0.68;0.60;;;;;;;3.63;47.57;92352.00;4896478;29;20016;-74
2024/04/21 01:12:57;;;;;;;0.73;0.70;;;;;;;3.58;47.98;92357.13;4921809;29;20010;-74
2024/04/21 01:15:23;;;;;;;0.73;0.73;;;;;;;3.53;47.36;92362.25;4895946;29;20114;-74
2024/04/21 01:17:49;;;;;;;0.80;0.80;;;;;;;3.50;48.11;92349.81;4922144;29;20006;-75
2024/04/21 01:20:15;;;;;;;0.80;0.70;;;;;;;3.44;49.65;92350.78;4922747;29;20033;-75
2024/04/21 01:22:46;;;;;;;0.70;0.70;;;;;;;3.39;48.99;92359.28;4922413;29;20320;-75
2024/04/21 01:25:11;;;;;;;0.68;0.63;;;;;;;3.36;49.50;92357.19;4922488;29;20010;-75
2024/04/21 01:27:37;;;;;;;0.70;0.70;;;;;;;3.32;49.24;92353.53;4922206;29;20010;-74
2024/04/21 01:30:03;;;;;;;0.57;0.57;;;;;;;3.28;49.34;92347.28;4922323;29;20024;-76
2024/04/21 01:32:28;;;;;;;1.75;0.80;;;;;;;3.30;48.82;92345.22;4921924;29;20026;-75
2024/04/21 01:34:54;;;;;;;0.60;0.60;;;;;;;3.34;47.58;92346.31;4921689;29;20018;-76
2024/04/21 01:37:20;;;;;;;0.60;0.60;;;;;;;3.43;46.81;92341.47;4897196;29;20092;-76
2024/04/21 01:39:45;;;;;;;0.50;0.50;;;;;;;3.56;46.03;92343.66;4922601;29;20042;-75
2024/04/21 01:42:11;;;;;;;0.70;0.60;;;;;;;3.61;45.78;92328.16;4877349;29;20428;-76
2024/04/21 01:44:36;;;;;;;0.40;0.40;;;;;;;3.67;45.69;92322.00;4918865;29;20455;-74
2024/04/21 01:47:02;;;;;;;0.85;0.60;;;;;;;3.69;45.79;92316.56;4922136;29;20092;-75
2024/04/21 01:49:28;;;;;;;0.70;0.70;;;;;;;3.71;46.20;92309.31;4927426;29;20010;-75
2024/04/21 01:51:54;;;;;;;0.68;0.57;;;;;;;3.87;45.55;92302.44;4921422;29;20104;-75
2024/04/21 01:54:20;;;;;;;0.45;0.45;;;;;;;3.86;45.20;92298.31;4921692;29;20065;-75
2024/04/21 01:56:46;;;;;;;0.70;0.60;;;;;;;3.97;44.79;92299.94;4922407;29;20453;-75
2024/04/21 01:59:11;;;;;;;0.65;0.65;;;;;;;4.07;44.03;92306.97;4917892;29;20100;-75
2024/04/21 02:01:37;;;;;;;1.02;0.70;;;;;;;4.07;43.83;92306.97;4909487;29;20014;-76
2024/04/21 02:04:03;;;;;;;1.85;0.70;;;;;;;4.03;44.08;92311.09;4920549;29;20387;-75
2024/04/21 02:06:28;;;;;;;0.77;0.60;;;;;;;3.96;44.52;92306.13;4921329;29;20014;-73
2024/04/21 02:08:54;;;;;;;0.55;0.55;;;;;;;3.94;44.07;92303.81;4925023;29;20103;-74
2024/04/21 02:11:20;;;;;;;1.10;0.70;;;;;;;3.92;44.45;92299.91;4921456;29;20010;-75
2024/04/21 02:13:45;;;;;;;0.53;0.53;;;;;;;3.90;45.30;92302.75;4921166;29;20034;-74
2024/04/21 02:16:11;;;;;;;0.63;0.60;;;;;;;3.83;45.36;92304.78;4921210;29;20566;-75
2024/04/21 02:18:37;;;;;;;0.52;0.52;;;;;;;3.78;46.33;92303.94;4921726;29;20006;-76
2024/04/21 02:21:02;;;;;;;0.70;0.70;;;;;;;3.71;46.46;92301.56;4903750;29;20022;-76
2024/04/21 02:23:28;;;;;;;0.50;0.50;;;;;;;3.70;45.89;92297.44;4921037;29;20025;-76
2024/04/21 02:26:00;;;;;;;0.60;0.60;;;;;;;3.68;45.59;92294.31;4921417;29;20014;-75
2024/04/21 02:28:27;;;;;;;0.60;0.60;;;;;;;3.71;45.65;92293.78;4920645;29;20029;-75
2024/04/21 02:30:53;;;;;;;0.52;0.52;;;;;;;3.67;45.53;92297.91;4921387;29;20010;-75
2024/04/21 02:33:23;;;;;;;0.60;0.60;;;;;;;3.65;45.69;92289.63;4894962;29;20438;-76
2024/04/21 02:35:50;;;;;;;0.60;0.60;;;;;;;3.63;46.39;92281.34;4920892;29;20347;-76
2024/04/21 02:38:16;;;;;;;0.90;0.68;;;;;;;3.58;46.79;92283.84;4895465;29;20517;-76
2024/04/21 02:40:42;;;;;;;0.63;0.63;;;;;;;3.51;46.67;92282.28;4894936;29;20021;-75
2024/04/21 02:43:08;;;;;;;1.80;0.70;;;;;;;3.50;46.12;92278.13;4919536;29;20493;-76
2024/04/21 02:45:34;;;;;;;0.55;0.55;;;;;;;3.52;46.23;92275.28;4894845;29;20010;-76
2024/04/21 02:47:59;;;;;;;0.95;0.70;;;;;;;3.51;45.96;92269.34;4924079;29;20497;-76
2024/04/21 02:50:25;;;;;;;1.30;0.60;;;;;;;3.53;45.48;92266.47;4924154;29;20025;-76
2024/04/21 02:52:50;;;;;;;0.50;0.50;;;;;;;3.51;46.25;92282.28;4923204;29;20108;-76
2024/04/21 02:55:17;;;;;;;0.60;0.60;;;;;;;3.48;47.52;92275.00;4924051;29;20379;-76
2024/04/21 02:57:43;;;;;;;0.55;0.55;;;;;;;3.42;47.33;92273.38;4923838;29;20020;-75
2024/04/21 03:00:09;;;;;;;0.73;0.55;;;;;;;3.37;47.44;92268.19;4924650;29;20339;-75
2024/04/21 03:02:35;;;;;;;0.85;0.70;;;;;;;3.33;47.27;92262.72;4901503;29;20021;-75
2024/04/21 03:05:01;;;;;;;0.52;0.52;;;;;;;3.28;48.00;92265.25;4923888;29;20014;-76
2024/04/21 03:07:26;;;;;;;0.75;0.50;;;;;;;3.25;47.64;92262.41;4914178;29;20067;-76
2024/04/21 03:09:52;;;;;;;0.40;0.40;;;;;;;3.27;47.42;92262.94;4893549;29;20029;-76
2024/04/21 03:12:17;;;;;;;0.70;0.70;;;;;;;3.26;46.96;92263.94;4890629;29;20359;-76
2024/04/21 03:14:43;;;;;;;0.55;0.52;;;;;;;3.30;46.17;92257.25;4923448;29;20010;-75
2024/04/21 03:17:09;;;;;;;0.50;0.50;;;;;;;3.34;46.46;92258.34;4924172;29;20014;-76
2024/04/21 03:19:35;;;;;;;0.60;0.60;;;;;;;3.38;45.37;92256.00;4923972;29;20010;-76
2024/04/21 03:22:01;;;;;;;0.50;0.50;;;;;;;3.45;44.29;92254.78;4925811;29;20522;-76
2024/04/21 03:24:27;;;;;;;0.52;0.52;;;;;;;3.49;44.75;92250.69;4923798;29;20014;-76
2024/04/21 03:26:52;;;;;;;0.60;0.60;;;;;;;3.55;44.10;92246.31;4923769;29;20024;-75
2024/04/21 03:29:18;;;;;;;0.50;0.50;;;;;;;3.58;43.88;92243.25;4923830;29;20010;-76
2024/04/21 03:31:44;;;;;;;0.50;0.50;;;;;;;3.62;43.65;92238.34;4923886;29;20449;-76
2024/04/21 03:34:10;;;;;;;0.57;0.57;;;;;;;3.61;43.77;92231.63;4923625;29;20010;-75
2024/04/21 03:36:35;;;;;;;0.60;0.60;;;;;;;3.68;43.76;92242.53;4923837;29;20011;-75
2024/04/21 03:39:01;;;;;;;0.82;0.50;;;;;;;3.66;43.79;92232.41;4923980;29;20021;-76
2024/04/21 03:41:26;;;;;;;0.63;0.63;;;;;;;3.66;44.14;92234.22;4924094;29;20081;-76
2024/04/21 03:43:52;;;;;;;0.52;0.52;;;;;;;3.61;44.63;92234.19;4912105;29;20348;-76
2024/04/21 03:46:18;;;;;;;0.85;0.60;;;;;;;3.54;45.26;92227.41;4912166;29;20088;-75
2024/04/21 03:48:44;;;;;;;0.50;0.50;;;;;;;3.49;45.36;92234.34;4924698;29;20010;-76
2024/04/21 03:51:09;;;;;;;0.50;0.50;;;;;;;3.46;45.32;92232.28;4898955;29;20496;-76
2024/04/21 03:53:35;;;;;;;0.43;0.43;;;;;;;3.44;45.54;92229.16;4923729;29;20028;-75
2024/04/21 03:56:01;;;;;;;0.60;0.60;;;;;;;3.40;46.04;92225.50;4923423;29;20010;-76
2024/04/21 03:58:26;;;;;;;0.52;0.52;;;;;;;3.38;46.81;92222.38;4921915;29;20042;-76
2024/04/21 04:00:52;;;;;;;0.70;0.70;;;;;;;3.33;46.53;92225.72;4904383;29;20010;-76
2024/04/21 04:03:18;;;;;;;0.50;0.50;;;;;;;3.32;45.89;92224.94;4923345;29;20437;-76
2024/04/21 04:05:44;;;;;;;0.77;0.60;;;;;;;3.43;45.14;92215.44;4920328;29;20010;-75
2024/04/21 04:08:11;;;;;;;0.50;0.50;;;;;;;3.43;45.05;92227.59;4912887;29;20065;-76
2024/04/21 04:10:40;;;;;;;0.60;0.60;;;;;;;3.38;47.14;92223.19;4899850;29;20022;-76
2024/04/21 04:13:06;;;;;;;0.60;0.60;;;;;;;3.30;47.61;92216.63;4910169;29;20017;-76
2024/04/21 04:15:32;;;;;;;11.45;7.35;;;;;;;3.25;48.34;92221.00;4921977;29;20352;-76
2024/04/21 04:17:58;;;;;;;4.47;1.88;;;;;;;3.20;47.66;92226.13;4924263;29;20010;-75
2024/04/21 04:20:25;;;;;;;1.48;0.93;;;;;;;3.20;47.55;92215.78;4951600;29;20024;-75
2024/04/21 04:22:50;;;;;;;0.95;0.80;;;;;;;3.18;47.61;92216.03;4940679;29;20026;-76
2024/04/21 04:25:16;;;;;;;0.88;0.70;;;;;;;3.20;47.54;92215.78;4923888;29;20412;-76
2024/04/21 04:27:42;;;;;;;0.60;0.60;;;;;;;3.17;48.33;92211.88;4923344;29;20017;-76
2024/04/21 04:30:08;;;;;;;0.55;0.55;;;;;;;3.13;47.81;92206.44;4894653;29;20036;-76
2024/04/21 04:32:34;;;;;;;2.85;0.70;;;;;;;3.22;47.81;92209.34;4922867;29;20734;-75
2024/04/21 04:35:00;;;;;;;0.50;0.50;;;;;;;3.26;47.05;92209.63;4921049;29;20009;-76
2024/04/21 04:37:25;;;;;;;0.45;0.45;;;;;;;3.37;45.83;92206.06;4923222;29;20025;-75
2024/04/21 04:39:51;;;;;;;0.70;0.70;;;;;;;3.41;45.83;92201.97;4922978;29;20020;-76
2024/04/21 04:42:17;;;;;;;0.77;0.77;;;;;;;3.43;45.51;92199.16;4945702;29;20013;-76
2024/04/21 04:44:42;;;;;;;0.50;0.50;;;;;;;3.45;45.85;92202.25;4897202;29;20014;-75
2024/04/21 04:47:08;;;;;;;0.60;0.60;;;;;;;3.48;46.78;92199.94;4923175;29;20010;-75
2024/04/21 04:49:34;;;;;;;0.55;0.55;;;;;;;3.60;45.17;92201.56;4922854;29;20010;-75
2024/04/21 04:51:59;;;;;;;0.63;0.63;;;;;;;3.62;45.62;92197.69;4926627;29;20021;-76
2024/04/21 04:54:25;;;;;;;2.50;0.60;;;;;;;3.65;46.93;92196.44;4926116;29;20015;-76
2024/04/21 04:56:54;;;;;;;0.50;0.50;;;;;;;3.67;46.56;92194.34;4899127;29;20025;-76
2024/04/21 04:59:20;;;;;;;0.50;0.50;;;;;;;3.73;47.85;92201.13;4896827;29;20419;-76
2024/04/21 05:01:46;;;;;;;0.50;0.50;;;;;;;3.76;45.28;92200.63;4923051;29;20017;-76
2024/04/21 05:04:11;;;;;;;0.65;0.47;;;;;;;3.81;43.75;92190.31;4922379;29;20365;-76
2024/04/21 05:06:37;;;;;;;0.70;0.60;;;;;;;3.94;42.96;92186.47;4896631;29;20013;-76
2024/04/21 05:09:04;;;;;;;0.60;0.60;;;;;;;4.01;43.61;92191.41;4922778;29;20542;-76
2024/04/21 05:11:30;;;;;;;0.50;0.50;;;;;;;4.08;44.63;92192.75;4924888;29;20141;-78
2024/04/21 05:13:58;;;;;;;0.98;0.63;;;;;;;4.14;43.97;92189.16;4926792;29;20014;-79
2024/04/21 05:16:25;;;;;;;0.70;0.70;;;;;;;4.18;44.09;92192.00;4927604;29;20010;-76
2024/04/21 05:18:51;;;;;;;0.70;0.70;;;;;;;4.24;44.34;92191.00;4924898;29;20010;-76
2024/04/21 05:21:16;;;;;;;0.63;0.63;;;;;;;4.32;44.17;92189.72;4924882;29;20033;-76
2024/04/21 05:23:42;;;;;;;0.50;0.50;;;;;;;4.41;43.71;92197.78;4924509;29;20006;-77
2024/04/21 05:26:08;;;;;;;0.60;0.60;;;;;;;4.48;44.03;92193.94;4898095;29;20018;-77
2024/04/21 05:28:34;;;;;;;0.57;0.57;;;;;;;4.51;44.29;92201.19;4906877;28;1183943;-77
2024/04/21 05:30:59;;;;;;;1.35;0.55;;;;;;;4.55;44.43;92202.25;4923949;29;20057;-77
2024/04/21 05:33:26;;;;;;;1.48;0.77;;;;;;;4.61;45.05;92199.66;4923388;29;20081;-77
2024/04/21 05:35:52;;;;;;;0.65;0.65;;;;;;;4.63;44.14;92206.13;4924351;29;20010;-76
2024/04/21 05:38:18;;;;;;;0.57;0.50;;;;;;;4.66;43.05;92205.66;4922651;29;20014;-77
2024/04/21 05:40:43;;;;;;;0.73;0.70;;;;;;;4.69;43.03;92194.75;4923296;29;20021;-76
2024/04/21 05:43:10;;;;;;;0.60;0.60;;;;;;;4.78;42.29;92192.44;4922023;29;20099;-75
2024/04/21 05:45:36;;;;;;;0.65;0.65;;;;;;;4.96;42.53;92193.75;4926385;29;20409;-77
2024/04/21 05:48:02;;;;;;;0.60;0.60;;;;;;;5.15;42.04;92186.22;4893169;29;20337;-78
2024/04/21 05:50:28;;;;;;;0.55;0.55;;;;;;;5.36;41.07;92187.03;4894485;29;20026;-79
2024/04/21 05:52:53;;;;;;;0.63;0.60;;;;;;;5.72;38.68;92176.56;4916424;29;20097;-79
2024/04/21 05:55:19;;;;;;;0.75;0.63;;;;;;;5.97;37.41;92181.75;4914057;29;20014;-79
2024/04/21 05:57:44;;;;;;;0.60;0.60;;;;;;;6.41;36.82;92175.84;4915965;29;20074;-79
2024/04/21 06:00:10;;;;;;;0.77;0.77;;;;;;;6.55;37.49;92175.25;4886569;29;20021;-79
2024/04/21 06:02:36;;;;;;;0.50;0.50;;;;;;;6.82;37.83;92173.03;4908610;29;20086;-78
2024/04/21 06:05:03;;;;;;;0.77;0.60;;;;;;;7.08;38.24;92172.84;4905273;29;20039;-80
2024/04/21 06:07:29;;;;;;;0.40;0.40;;;;;;;7.30;38.33;92165.38;4903318;29;20389;-81
2024/04/21 06:09:55;;;;;;;0.57;0.57;;;;;;;7.24;37.35;92176.88;4903783;29;20006;-80
2024/04/21 06:12:22;;;;;;;0.70;0.70;;;;;;;7.51;37.21;92167.81;4879467;29;20129;-79
2024/04/21 06:14:48;;;;;;;0.60;0.60;;;;;;;7.89;36.58;92166.13;4898511;29;20021;-78
2024/04/21 06:17:14;;;;;;;1.30;0.77;;;;;;;8.56;37.15;92168.00;4904534;29;20024;-79
2024/04/21 06:19:39;;;;;;;0.50;0.50;;;;;;;9.83;32.73;92155.88;4901785;29;20010;-81
2024/04/21 06:22:05;;;;;;;0.60;0.60;;;;;;;10.42;31.09;92156.88;4936511;28;20009;-76
2024/04/21 06:24:31;;;;;;;0.70;0.70;;;;;;;10.40;30.75;92159.00;4896620;29;20006;-78
2024/04/21 06:26:56;;;;;;;0.70;0.70;;;;;;;10.20;30.98;92149.72;4906419;29;20025;-79
2024/04/21 06:29:22;;;;;;;0.60;0.60;;;;;;;9.91;32.88;92160.47;4901732;29;20722;-77
2024/04/21 06:31:48;;;;;;;0.70;0.70;;;;;;;9.65;31.76;92149.66;4905921;29;20362;-79
2024/04/21 06:34:14;;;;;;;0.98;0.73;;;;;;;9.52;31.27;92148.56;4947859;28;20010;-78
2024/04/21 06:36:39;;;;;;;0.60;0.60;;;;;;;9.36;31.10;92148.81;4936378;29;20108;-78
2024/04/21 06:39:05;;;;;;;0.63;0.60;;;;;;;8.82;32.76;92155.38;4916678;29;20107;-77
2024/04/21 06:41:30;;;;;;;0.60;0.60;;;;;;;8.64;33.25;92151.69;4919936;29;20010;-78
2024/04/21 06:43:56;;;;;;;3.15;0.93;;;;;;;8.56;32.76;92144.53;4896013;29;20010;-79
2024/04/21 06:46:22;;;;;;;0.65;0.65;;;;;;;8.52;33.56;92144.31;4915847;29;20451;-79
2024/04/21 06:48:47;;;;;;;0.50;0.50;;;;;;;8.45;34.43;92141.28;4893778;29;20533;-77
2024/04/21 06:51:13;;;;;;;0.65;0.55;;;;;;;8.45;33.81;92141.28;4882555;29;20015;-78
2024/04/21 06:53:38;;;;;;;2.05;1.02;;;;;;;8.48;34.33;92145.16;4908543;29;20135;-79
2024/04/21 06:56:04;;;;;;;0.55;0.55;;;;;;;8.71;33.07;92148.75;4879840;29;20014;-77
2024/04/21 06:58:30;;;;;;;0.80;0.80;;;;;;;9.15;32.62;92147.59;4907803;29;20508;-80
2024/04/21 07:00:55;;;;;;;0.70;0.70;;;;;;;9.27;32.06;92142.69;4907765;29;20022;-77
2024/04/21 07:03:21;;;;;;;0.85;0.80;;;;;;;9.47;33.35;92143.44;4883605;29;20359;-79
2024/04/21 07:05:47;;;;;;;0.70;0.70;;;;;;;9.89;31.93;92139.06;4929917;28;20443;-77
2024/04/21 07:08:13;;;;;;;0.50;0.50;;;;;;;9.93;33.31;92132.16;4907600;29;20829;-79
2024/04/21 07:10:38;;;;;;;0.70;0.57;;;;;;;10.01;31.23;92142.72;4907231;29;20010;-77
2024/04/21 07:13:04;;;;;;;0.63;0.63;;;;;;;9.98;31.09;92132.09;4904251;29;20116;-78
2024/04/21 07:15:30;;;;;;;3.30;0.80;;;;;;;10.02;30.93;92130.44;4878396;29;20133;-78
2024/04/21 07:17:56;;;;;;;0.50;0.50;;;;;;;9.99;32.51;92128.38;4906477;29;20065;-78
2024/04/21 07:20:21;;;;;;;0.57;0.57;;;;;;;10.29;32.09;92134.13;4907129;29;20022;-78
2024/04/21 07:22:47;;;;;;;1.35;0.77;;;;;;;10.65;30.33;92125.53;4905618;29;20062;-78
2024/04/21 07:25:17;;;;;;;0.70;0.68;;;;;;;10.93;29.98;92129.63;4905744;29;20096;-78
2024/04/21 07:27:43;;;;;;;0.60;0.60;;;;;;;11.23;32.16;92127.38;4907034;29;20022;-78
2024/04/21 07:30:09;;;;;;;0.60;0.60;;;;;;;11.72;29.73;92122.25;4906733;29;20134;-79
2024/04/21 07:32:35;;;;;;;4.22;1.42;;;;;;;11.79;29.08;92110.25;4879728;29;20360;-78
2024/04/21 07:35:01;;;;;;;0.73;0.70;;;;;;;11.24;29.57;92124.47;4909837;29;20019;-79
2024/04/21 07:37:27;;;;;;;1.50;0.75;;;;;;;11.15;28.48;92110.53;4881242;29;20065;-79
2024/04/21 07:39:54;;;;;;;1.08;0.65;;;;;;;11.00;31.02;92110.88;4927742;28;20029;-78
2024/04/21 07:42:19;;;;;;;1.92;1.08;;;;;;;11.04;32.92;92112.63;4903317;29;20475;-78
2024/04/21 07:44:45;;;;;;;0.70;0.70;;;;;;;10.49;33.28;92110.19;4910425;29;20021;-78
2024/04/21 07:47:11;;;;;;;0.65;0.65;;;;;;;10.92;32.08;92117.63;4907846;29;20021;-79
2024/04/21 07:49:36;;;;;;;0.75;0.70;;;;;;;10.44;28.39;92110.25;4909061;29;20025;-78
2024/04/21 07:52:02;;;;;;;0.50;0.50;;;;;;;10.45;28.58;92103.19;4909033;29;20006;-79
2024/04/21 07:54:27;;;;;;;0.60;0.60;;;;;;;10.04;29.27;92107.38;4923489;29;20020;-78
2024/04/21 07:56:53;;;;;;;0.60;0.60;;;;;;;10.13;28.72;92097.78;4923167;29;20463;-78
2024/04/21 07:59:19;;;;;;;0.65;0.65;;;;;;;10.16;28.02;92109.50;4947258;29;20009;-79
2024/04/21 08:01:46;;;;;;;1.42;1.00;;;;;;;10.27;29.39;92102.22;4897481;29;20018;-78
2024/04/21 08:04:12;;;;;;;0.60;0.55;;;;;;;10.26;29.46;92101.44;4928951;29;20019;-78
2024/04/21 08:06:37;;;;;;;0.68;0.68;;;;;;;10.36;28.56;92103.13;4924858;29;20014;-78
2024/04/21 08:09:03;;;;;;;0.70;0.70;;;;;;;10.65;28.60;92107.22;4917433;29;20041;-78
2024/04/21 08:11:29;;;;;;;0.63;0.63;;;;;;;10.96;27.28;92102.84;4910027;29;20184;-80
2024/04/21 08:13:55;;;;;;;0.55;0.55;;;;;;;11.07;29.17;92090.28;4906977;29;20538;-78
2024/04/21 08:16:20;;;;;;;0.52;0.52;;;;;;;10.55;25.83;92093.28;4905343;29;20450;-78
2024/04/21 08:18:46;;;;;;;1.05;0.80;;;;;;;10.53;28.17;92084.94;4907025;29;20006;-79
2024/04/21 08:21:11;;;;;;;0.65;0.55;;;;;;;10.72;28.85;92094.50;4909837;29;20470;-78
2024/04/21 08:23:38;;;;;;;0.50;0.50;;;;;;;10.56;27.22;92089.59;4914857;29;20124;-79
2024/04/21 08:26:04;;;;;;;0.60;0.60;;;;;;;9.83;28.08;92077.47;4893173;29;20006;-78
2024/04/21 08:28:30;;;;;;;0.73;0.73;;;;;;;10.00;30.12;92088.13;4884909;29;20024;-78
2024/04/21 08:30:56;;;;;;;0.90;0.70;;;;;;;9.79;27.16;92080.66;4903919;29;20022;-79
2024/04/21 08:33:22;;;;;;;0.60;0.60;;;;;;;10.25;28.56;92075.59;4907224;29;20021;-78
2024/04/21 08:35:54;;;;;;;0.70;0.70;;;;;;;10.23;27.13;92080.34;4881666;29;20362;-79
2024/04/21 08:38:20;;;;;;;;;;;;;;;10.45;29.24;92077.81;4906083;29;20037;-79
2024/04/21 08:40:49;;;;;;;2.08;0.80;;;;;;;10.53;30.43;92073.72;4858371;29;19947;-79
2024/04/21 08:43:23;;;;;;;1.10;0.75;;;;;;;10.27;28.67;92073.44;4902360;29;20010;-78
2024/04/21 08:45:52;;;;;;;0.50;0.50;;;;;;;9.82;27.68;92076.69;4891813;29;20088;-78
2024/04/21 08:48:19;;;;;;;0.60;0.60;;;;;;;9.90;29.73;92073.38;4929916;28;20010;-78
2024/04/21 08:50:49;;;;;;;0.60;0.60;;;;;;;10.26;26.60;92058.81;4905366;29;20100;-78
2024/04/21 08:53:16;;;;;;;1.48;0.80;;;;;;;11.04;34.27;92068.09;4910229;29;20024;-78
2024/04/21 08:55:49;;;;;;;1.30;1.00;;;;;;;10.94;31.50;92063.09;4906611;29;20018;-77
2024/04/21 08:58:16;;;;;;;0.50;0.50;;;;;;;10.70;30.75;92073.09;4904542;29;20018;-78
2024/04/21 09:00:42;;;;;;;1.05;0.80;;;;;;;10.46;31.57;92049.78;4906105;29;20017;-76
2024/04/21 09:03:08;;;;;;;1.33;0.98;;;;;;;10.54;29.55;92049.88;4900151;29;20033;-76
2024/04/21 09:05:34;;;;;;;0.57;0.40;;;;;;;10.72;29.89;92050.00;4905406;29;20010;-77
2024/04/21 09:07:59;;;;;;;0.60;0.60;;;;;;;10.17;30.93;92043.81;4902908;29;20379;-78
2024/04/21 09:10:25;;;;;;;0.85;0.60;;;;;;;9.93;29.94;92041.44;4881917;29;20400;-78
2024/04/21 09:12:52;;;;;;;0.80;0.60;;;;;;;9.95;29.68;92036.69;4879159;29;20014;-77
2024/04/21 09:15:18;;;;;;;0.50;0.50;;;;;;;9.91;30.65;92040.94;4906217;29;20196;-77
2024/04/21 09:17:45;;;;;;;1.23;0.60;;;;;;;9.70;29.79;92037.94;4907975;29;20028;-77
2024/04/21 09:20:11;;;;;;;0.75;0.70;;;;;;;10.50;30.27;92048.13;4881788;29;20054;-77
2024/04/21 09:22:37;;;;;;;3.03;0.82;;;;;;;10.66;28.91;92045.94;4907728;29;20010;-77
2024/04/21 09:25:04;;;;;;;0.52;0.50;;;;;;;10.78;29.12;92038.31;4932755;28;20027;-77
2024/04/21 09:27:30;;;;;;;0.50;0.50;;;;;;;11.13;28.99;92043.81;4902949;29;20046;-78
2024/04/21 09:29:57;;;;;;;2.08;1.00;;;;;;;11.33;28.87;92043.28;4905534;29;20011;-78
2024/04/21 09:32:26;;;;;;;0.73;0.60;;;;;;;11.06;27.88;92033.75;4905261;29;20028;-78
2024/04/21 09:34:56;;;;;;;0.80;0.75;;;;;;;10.58;29.02;92040.34;4906219;29;20026;-78
2024/04/21 09:37:22;;;;;;;3.03;1.33;;;;;;;10.26;29.53;92038.66;4929968;28;20018;-77
2024/04/21 09:39:49;;;;;;;0.60;0.60;;;;;;;10.28;28.54;92030.53;4903698;29;20022;-77
2024/04/21 09:42:16;;;;;;;0.50;0.50;;;;;;;10.21;29.17;92041.38;4878988;29;20092;-77
2024/04/21 09:44:46;;;;;;;0.52;0.52;;;;;;;10.19;28.27;92031.22;4904902;29;20482;-79
2024/04/21 09:47:15;;;;;;;1.25;0.65;;;;;;;10.17;28.98;92035.19;4906380;29;20037;-78
2024/04/21 09:49:42;;;;;;;0.50;0.50;;;;;;;10.17;28.90;92025.50;4906205;29;20006;-77
2024/04/21 09:52:08;;;;;;;0.50;0.50;;;;;;;10.08;29.25;92035.09;4903561;29;20604;-77
2024/04/21 09:54:34;;;;;;;1.70;0.80;;;;;;;9.99;30.21;92029.03;4877572;29;20014;-78
2024/04/21 09:57:17;;;;;;;0.60;0.60;;;;;;;10.26;30.39;92027.44;4910706;29;20147;-78
2024/04/21 09:59:47;;;;;;;0.63;0.55;;;;;;;10.19;31.50;92022.59;4906133;29;20069;-77
2024/04/21 10:02:23;;;;;;;0.45;0.45;;;;;;;10.13;31.63;92019.34;4884229;29;20014;-79
2024/04/21 10:05:05;;;;;;;0.60;0.60;;;;;;;10.34;30.81;92027.53;4907224;29;20025;-80
2024/04/21 10:07:35;;;;;;;0.83;0.80;;;;;;;10.38;30.07;92020.66;4883667;29;20056;-77
2024/04/21 10:10:08;;;;;;;1.00;0.70;;;;;;;10.20;28.88;92024.94;4907798;29;20009;-78
2024/04/21 10:12:34;;;;;;;0.50;0.50;;;;;;;10.35;29.15;92025.69;4904678;29;20022;-77
2024/04/21 10:15:01;;;;;;;0.52;0.52;;;;;;;10.32;29.71;92021.06;4906880;29;20013;-78
2024/04/21 10:17:26;;;;;;;0.63;0.63;;;;;;;10.23;28.33;92020.19;4877541;29;20020;-78
2024/04/21 10:20:06;;;;;;;0.77;0.70;;;;;;;10.06;29.31;92018.94;4935685;28;20018;-77
2024/04/21 10:22:42;;;;;;;1.58;0.90;;;;;;;10.07;29.38;92022.34;4913148;29;20018;-78
2024/04/21 10:25:08;;;;;;;0.60;0.55;;;;;;;9.97;30.93;92020.69;4892252;29;20526;-80
2024/04/21 10:27:33;;;;;;;0.57;0.50;;;;;;;10.01;30.29;92013.81;4903701;29;20607;-77
2024/04/21 10:30:11;;;;;;;0.70;0.70;;;;;;;9.92;28.94;92018.19;4905390;29;20437;-77
2024/04/21 10:32:36;;;;;;;0.52;0.52;;;;;;;9.87;29.07;92016.47;4900137;29;20406;-77
2024/04/21 10:35:02;;;;;;;0.82;0.80;;;;;;;9.89;29.47;92009.09;4927432;28;20541;-78
2024/04/21 10:37:29;;;;;;;1.17;0.77;;;;;;;9.93;29.73;92009.28;4907505;29;20010;-77
2024/04/21 10:40:05;;;;;;;1.48;0.95;;;;;;;9.98;28.76;92006.56;4909985;29;20013;-76
2024/04/21 10:42:35;;;;;;;1.13;0.70;;;;;;;10.04;29.56;92010.59;4906671;29;20058;-77
2024/04/21 10:45:01;;;;;;;0.60;0.60;;;;;;;10.11;29.00;92010.22;4909552;29;20656;-77
2024/04/21 10:47:27;;;;;;;0.50;0.50;;;;;;;10.19;29.04;92002.44;4907006;29;20017;-77
2024/04/21 10:49:53;;;;;;;0.90;0.70;;;;;;;10.38;31.56;92002.34;4905774;29;20034;-77
2024/04/21 10:52:18;;;;;;;2.60;1.30;;;;;;;10.76;29.34;92003.81;4881718;29;20017;-78
2024/04/21 10:54:44;;;;;;;0.73;0.73;;;;;;;11.06;27.51;91998.94;4880186;29;20081;-77
2024/04/21 10:57:10;;;;;;;0.50;0.50;;;;;;;11.13;26.98;91996.66;4909862;29;20018;-78
2024/04/21 10:59:36;;;;;;;0.80;0.70;;;;;;;11.14;26.05;91992.94;4905879;29;20026;-78
2024/04/21 11:02:01;;;;;;;0.73;0.73;;;;;;;11.11;27.93;91985.69;4908460;29;20956;-78
2024/04/21 11:04:28;;;;;;;1.10;0.60;;;;;;;11.03;28.89;91981.94;4907617;29;20038;-78
2024/04/21 11:06:54;;;;;;;0.60;0.60;;;;;;;11.02;28.71;91988.25;4909027;29;20039;-77
2024/04/21 11:09:20;;;;;;;0.80;0.77;;;;;;;10.82;27.96;91981.69;4905930;29;20459;-78
2024/04/21 11:11:46;;;;;;;0.80;0.80;;;;;;;10.74;28.43;91977.16;4906084;29;20106;-76
2024/04/21 11:14:12;;;;;;;0.70;0.70;;;;;;;10.70;28.36;91971.00;4907399;29;20014;-77
2024/04/21 11:16:38;;;;;;;0.68;0.60;;;;;;;10.79;30.12;91972.59;4906908;29;20010;-77
2024/04/21 11:19:04;;;;;;;0.65;0.65;;;;;;;10.20;28.08;91974.47;4933435;28;20431;-78
2024/04/21 11:21:30;;;;;;;1.13;0.80;;;;;;;10.43;29.62;91962.19;4910488;29;20021;-76
2024/04/21 11:23:56;;;;;;;0.60;0.60;;;;;;;10.50;28.25;91964.41;4884602;29;20101;-77
2024/04/21 11:26:22;;;;;;;0.82;0.80;;;;;;;10.47;28.64;91960.53;4882913;29;20495;-77
2024/04/21 11:28:48;;;;;;;0.98;0.88;;;;;;;10.19;28.51;91960.59;4903464;29;20028;-76
2024/04/21 11:31:14;;;;;;;0.50;0.50;;;;;;;10.36;28.58;91954.00;4886387;29;20017;-77
2024/04/21 11:33:42;;;;;;;3.33;0.90;;;;;;;10.49;30.67;91953.16;4864558;29;20014;-76
2024/04/21 11:36:12;;;;;;;0.60;0.60;;;;;;;10.53;29.48;91954.09;4904423;29;20021;-77